createdAt,value
2022-09-18T00:00:16.379Z,9.711802
2022-09-18T00:01:16.344Z,9.711806
2022-09-18T00:02:16.434Z,9.711777
2022-09-18T00:03:16.379Z,9.711745
2022-09-18T00:04:16.418Z,9.711703
2022-09-18T00:05:16.309Z,9.711837
2022-09-18T00:06:16.300Z,9.711821
2022-09-18T00:07:16.296Z,9.711829
2022-09-18T00:08:16.280Z,9.711703
2022-09-18T00:09:16.275Z,9.711806
2022-09-18T00:10:16.265Z,9.711711
2022-09-18T00:11:16.258Z,9.711510
2022-09-18T00:12:16.804Z,9.711503
2022-09-18T00:13:16.241Z,9.711444
2022-09-18T00:14:16.229Z,9.711534
2022-09-18T00:15:16.225Z,9.711544
2022-09-18T00:16:16.387Z,9.711459
2022-09-18T00:17:16.211Z,9.711623
2022-09-18T00:18:16.198Z,9.711525
2022-09-18T00:19:16.194Z,9.711617
2022-09-18T00:20:16.292Z,9.711634
2022-09-18T00:21:16.198Z,9.711639
2022-09-18T00:22:16.168Z,9.711653
2022-09-18T00:23:16.184Z,9.711439
2022-09-18T00:24:16.846Z,9.711521
2022-09-18T00:25:16.144Z,9.711464
2022-09-18T00:26:16.147Z,9.711441
2022-09-18T00:27:16.126Z,9.711516
2022-09-18T00:28:16.115Z,9.711576
2022-09-18T00:29:16.108Z,9.711637
2022-09-18T00:34:17.655Z,9.711470
2022-09-18T00:35:17.647Z,9.711276
2022-09-18T00:36:17.742Z,9.711285
2022-09-18T00:37:17.642Z,9.711609
2022-09-18T00:38:17.627Z,9.711650
2022-09-18T00:39:17.619Z,9.711483
2022-09-18T00:40:17.685Z,9.711753
2022-09-18T00:41:17.601Z,9.711917
2022-09-18T00:42:17.603Z,9.711581
2022-09-18T00:43:17.585Z,9.711852
2022-09-18T00:44:17.579Z,9.711435
2022-09-18T00:45:17.582Z,9.711242
2022-09-18T00:46:17.612Z,9.711410
2022-09-18T00:47:17.562Z,9.711699
2022-09-18T00:48:17.565Z,9.711900
2022-09-18T00:49:17.529Z,9.711632
2022-09-18T00:50:18.535Z,9.711666
2022-09-18T00:51:17.521Z,9.711742
2022-09-18T00:52:17.621Z,9.711575
2022-09-18T00:53:17.508Z,9.711635
2022-09-18T00:54:17.498Z,9.711533
2022-09-18T00:55:17.488Z,9.711343
2022-09-18T00:56:17.488Z,9.711226
2022-09-18T00:57:17.490Z,9.711289
2022-09-18T00:58:17.463Z,9.711369
2022-09-18T00:59:17.455Z,9.711396
2022-09-18T01:00:17.454Z,9.711413
2022-09-18T01:01:17.476Z,9.711493
2022-09-18T01:02:17.460Z,9.711461
2022-09-18T01:03:17.431Z,9.711419
2022-09-18T01:04:17.414Z,9.711386
2022-09-18T01:05:17.407Z,9.711311
2022-09-18T01:06:17.397Z,9.711727
2022-09-18T01:07:17.391Z,9.711708
2022-09-18T01:08:17.491Z,9.711738
2022-09-18T01:09:27.982Z,9.711677
2022-09-18T01:10:19.370Z,9.711714
2022-09-18T01:11:17.359Z,9.711667
2022-09-18T01:12:17.352Z,9.711657
2022-09-18T01:13:17.350Z,9.711675
2022-09-18T01:14:17.339Z,9.711679
2022-09-18T01:15:17.343Z,9.711691
2022-09-18T01:16:17.383Z,9.711635
2022-09-18T01:17:17.308Z,9.711606
2022-09-18T01:18:17.302Z,9.711650
2022-09-18T01:19:17.302Z,9.711630
2022-09-18T01:20:17.287Z,9.711595
2022-09-18T01:21:17.307Z,9.711591
2022-09-18T01:22:17.274Z,9.711624
2022-09-18T01:23:17.266Z,9.711598
2022-09-18T01:24:17.359Z,9.711559
2022-09-18T01:25:17.251Z,9.711566
2022-09-18T01:26:17.237Z,9.711586
2022-09-18T01:27:17.227Z,9.711598
2022-09-18T01:28:17.217Z,9.711544
2022-09-18T01:29:17.212Z,9.711548
2022-09-18T01:30:17.206Z,9.711582
2022-09-18T01:31:17.278Z,9.711546
2022-09-18T01:32:17.187Z,9.711539
2022-09-18T01:33:17.177Z,9.711537
2022-09-18T01:34:17.169Z,9.711585
2022-09-18T01:35:37.201Z,9.711564
2022-09-18T01:36:19.154Z,9.711552
2022-09-18T01:37:17.147Z,9.711565
2022-09-18T01:38:17.139Z,9.711520
2022-09-18T01:39:17.132Z,9.711459
2022-09-18T01:40:17.321Z,9.711512
2022-09-18T01:41:17.111Z,9.711547
2022-09-18T01:42:17.104Z,9.711491
2022-09-18T01:43:17.096Z,9.711470
2022-09-18T01:44:17.085Z,9.711519
2022-09-18T01:45:17.087Z,9.711546
2022-09-18T01:46:17.140Z,9.711538
2022-09-18T01:47:17.060Z,9.711520
2022-09-18T01:48:17.054Z,9.711528
2022-09-18T01:49:17.052Z,9.711499
2022-09-18T01:50:17.042Z,9.711588
2022-09-18T01:51:17.042Z,9.711596
2022-09-18T01:52:17.021Z,9.711522
2022-09-18T01:53:17.021Z,9.711570
2022-09-18T01:54:17.003Z,9.711636
2022-09-18T01:55:17.001Z,9.711637
2022-09-18T01:56:17.090Z,9.711662
2022-09-18T01:57:17.545Z,9.711618
2022-09-18T01:58:16.973Z,9.711530
2022-09-18T01:59:16.971Z,9.711438
2022-09-18T02:00:16.975Z,9.711463
2022-09-18T02:01:17.027Z,9.711493
2022-09-18T02:02:17.083Z,9.711436
2022-09-18T02:03:17.935Z,9.711340
2022-09-18T02:04:16.924Z,9.711459
2022-09-18T02:05:16.924Z,9.711460
2022-09-18T02:06:16.910Z,9.711569
2022-09-18T02:07:16.897Z,9.711619
2022-09-18T02:08:16.889Z,9.711542
2022-09-18T02:09:16.883Z,9.711715
2022-09-18T02:10:16.887Z,9.711811
2022-09-18T02:11:16.871Z,9.711736
2022-09-18T02:12:16.960Z,9.711786
2022-09-18T02:13:16.864Z,9.711831
2022-09-18T02:14:16.840Z,9.711691
2022-09-18T02:15:16.831Z,9.711505
2022-09-18T02:16:16.886Z,9.711387
2022-09-18T02:17:16.813Z,9.711597
2022-09-18T02:18:16.840Z,9.711631
2022-09-18T02:19:16.797Z,9.711614
2022-09-18T02:20:16.792Z,9.711566
2022-09-18T02:21:16.782Z,9.711475
2022-09-18T02:22:16.782Z,9.711601
2022-09-18T02:23:16.778Z,9.711680
2022-09-18T02:24:16.762Z,9.711731
2022-09-18T02:25:16.754Z,9.711524
2022-09-18T02:26:16.768Z,9.711667
2022-09-18T02:27:16.741Z,9.711663
2022-09-18T02:28:16.837Z,9.711826
2022-09-18T02:29:16.718Z,9.711727
2022-09-18T02:30:16.717Z,9.711504
2022-09-18T02:31:17.523Z,9.711800
2022-09-18T02:32:16.704Z,9.711652
2022-09-18T02:33:16.692Z,9.711325
2022-09-18T02:34:16.679Z,9.711394
2022-09-18T02:35:16.675Z,9.711871
2022-09-18T02:36:16.669Z,9.711753
2022-09-18T02:37:16.657Z,9.711721
2022-09-18T02:38:16.657Z,9.711663
2022-09-18T02:39:16.648Z,9.711768
2022-09-18T02:40:16.705Z,9.712008
2022-09-18T02:41:16.625Z,9.711785
2022-09-18T02:42:16.626Z,9.711656
2022-09-18T02:43:16.634Z,9.711536
2022-09-18T02:44:16.728Z,9.711562
2022-09-18T02:45:16.593Z,9.711634
2022-09-18T02:46:16.641Z,9.711512
2022-09-18T02:47:16.598Z,9.711517
2022-09-18T02:48:16.575Z,9.711753
2022-09-18T02:49:16.578Z,9.711740
2022-09-18T02:50:16.553Z,9.711796
2022-09-18T02:51:16.556Z,9.711809
2022-09-18T02:52:16.541Z,9.712166
2022-09-18T02:53:16.526Z,9.711781
2022-09-18T02:54:16.526Z,9.711542
2022-09-18T02:55:16.513Z,9.711437
2022-09-18T02:56:16.502Z,9.711470
2022-09-18T02:57:16.583Z,9.711612
2022-09-18T02:58:16.485Z,9.711578
2022-09-18T02:59:16.491Z,9.711818
2022-09-18T03:00:16.578Z,9.712062
2022-09-18T03:01:16.544Z,9.711667
2022-09-18T03:02:16.501Z,9.711347
2022-09-18T03:03:16.449Z,9.711244
2022-09-18T03:04:16.451Z,9.711231
2022-09-18T03:05:16.434Z,9.711293
2022-09-18T03:06:16.424Z,9.711267
2022-09-18T03:07:16.424Z,9.711244
2022-09-18T03:08:16.411Z,9.711373
2022-09-18T03:09:16.407Z,9.711640
2022-09-18T03:10:16.382Z,9.711791
2022-09-18T03:11:17.382Z,9.711679
2022-09-18T03:12:16.374Z,9.711799
2022-09-18T03:13:16.364Z,9.711708
2022-09-18T03:14:16.355Z,9.711513
2022-09-18T03:15:16.359Z,9.711488
2022-09-18T03:16:16.498Z,9.711556
2022-09-18T03:17:16.335Z,9.711546
2022-09-18T03:18:16.327Z,9.711568
2022-09-18T03:19:16.317Z,9.711397
2022-09-18T03:20:16.323Z,9.711381
2022-09-18T03:21:16.300Z,9.711306
2022-09-18T03:22:16.297Z,9.711270
2022-09-18T03:23:16.306Z,9.711559
2022-09-18T03:24:16.277Z,9.711322
2022-09-18T03:25:17.071Z,9.711298
2022-09-18T03:26:16.259Z,9.711538
2022-09-18T03:27:16.251Z,9.711707
2022-09-18T03:28:16.244Z,9.711582
2022-09-18T03:29:16.234Z,9.711529
2022-09-18T03:30:16.262Z,9.711552
2022-09-18T03:31:16.309Z,9.711583
2022-09-18T03:32:16.313Z,9.711497
2022-09-18T03:33:16.203Z,9.711511
2022-09-18T03:34:16.197Z,9.711617
2022-09-18T03:35:16.198Z,9.711560
2022-09-18T03:36:16.178Z,9.711689
2022-09-18T03:37:16.169Z,9.711547
2022-09-18T03:38:16.161Z,9.711699
2022-09-18T03:39:16.469Z,9.711592
2022-09-18T03:40:17.207Z,9.711552
2022-09-18T03:41:16.137Z,9.711610
2022-09-18T03:42:16.129Z,9.711682
2022-09-18T03:43:16.116Z,9.711875
2022-09-18T03:44:16.106Z,9.711685
2022-09-18T03:45:16.100Z,9.711718
2022-09-18T03:46:16.128Z,9.711816
2022-09-18T03:47:16.084Z,9.711843
2022-09-18T03:48:16.176Z,9.711856
2022-09-18T03:49:16.067Z,9.711660
2022-09-18T03:50:16.059Z,9.711823
2022-09-18T03:51:16.056Z,9.711834
2022-09-18T03:52:16.043Z,9.711712
2022-09-18T03:53:16.036Z,9.711465
2022-09-18T03:54:16.029Z,9.711583
2022-09-18T03:55:16.020Z,9.711534
2022-09-18T03:56:16.017Z,9.711602
2022-09-18T03:57:16.004Z,9.711593
2022-09-18T03:58:15.995Z,9.711626
2022-09-18T03:59:16.577Z,9.711556
2022-09-18T04:00:15.983Z,9.711494
2022-09-18T04:01:15.982Z,9.711546
2022-09-18T04:02:16.619Z,9.711528
2022-09-18T04:03:16.010Z,9.711608
2022-09-18T04:04:16.046Z,9.711545
2022-09-18T04:05:15.970Z,9.711450
2022-09-18T04:06:15.936Z,9.711535
2022-09-18T04:07:15.921Z,9.711576
2022-09-18T04:08:15.914Z,9.711612
2022-09-18T04:09:15.913Z,9.711582
2022-09-18T04:10:15.899Z,9.711600
2022-09-18T04:11:15.902Z,9.711583
2022-09-18T04:12:16.578Z,9.711603
2022-09-18T04:13:15.878Z,9.711637
2022-09-18T04:14:15.864Z,9.711716
2022-09-18T04:15:15.859Z,9.711680
2022-09-18T04:16:15.884Z,9.711634
2022-09-18T04:17:15.852Z,9.711634
2022-09-18T04:18:15.835Z,9.711559
2022-09-18T04:19:15.828Z,9.711610
2022-09-18T04:20:15.920Z,9.711601
2022-09-18T04:21:15.812Z,9.711595
2022-09-18T04:22:15.808Z,9.711579
2022-09-18T04:23:15.803Z,9.711620
2022-09-18T04:24:15.790Z,9.711752
2022-09-18T04:25:15.790Z,9.711716
2022-09-18T04:26:15.779Z,9.711605
2022-09-18T04:27:15.767Z,9.711605
2022-09-18T04:28:15.763Z,9.711632
2022-09-18T04:29:15.747Z,9.711639
2022-09-18T04:30:15.748Z,9.711637
2022-09-18T04:31:15.777Z,9.711593
2022-09-18T04:32:15.729Z,9.711530
2022-09-18T04:33:16.184Z,9.711592
2022-09-18T04:34:16.712Z,9.711592
2022-09-18T04:35:15.694Z,9.711595
2022-09-18T04:36:15.796Z,9.711567
2022-09-18T04:37:15.682Z,9.711555
2022-09-18T04:38:15.675Z,9.711605
2022-09-18T04:39:15.672Z,9.711606
2022-09-18T04:40:15.717Z,9.711576
2022-09-18T04:41:15.660Z,9.711578
2022-09-18T04:42:15.642Z,9.711611
2022-09-18T04:43:15.635Z,9.711589
2022-09-18T04:44:15.640Z,9.711574
2022-09-18T04:45:15.619Z,9.711590
2022-09-18T04:46:15.669Z,9.711651
2022-09-18T04:47:15.601Z,9.711611
2022-09-18T04:48:15.594Z,9.711642
2022-09-18T04:49:15.594Z,9.711622
2022-09-18T04:50:15.575Z,9.711616
2022-09-18T04:51:15.567Z,9.711674
2022-09-18T04:52:15.667Z,9.711699
2022-09-18T04:53:15.552Z,9.711631
2022-09-18T04:54:15.549Z,9.711695
2022-09-18T04:55:15.538Z,9.711637
2022-09-18T04:56:15.549Z,9.711557
2022-09-18T04:57:15.521Z,9.711504
2022-09-18T04:58:15.510Z,9.711352
2022-09-18T04:59:15.600Z,9.711354
2022-09-18T05:00:15.497Z,9.711240
2022-09-18T05:01:15.563Z,9.711667
2022-09-18T05:02:15.526Z,9.711808
2022-09-18T05:03:15.474Z,9.711778
2022-09-18T05:04:15.462Z,9.711722
2022-09-18T05:05:15.462Z,9.711823
2022-09-18T05:06:15.444Z,9.711655
2022-09-18T05:07:16.012Z,9.711816
2022-09-18T05:08:15.531Z,9.711912
2022-09-18T05:09:15.419Z,9.712006
2022-09-18T05:10:15.425Z,9.711847
2022-09-18T05:11:15.428Z,9.711963
2022-09-18T05:12:15.396Z,9.711815
2022-09-18T05:13:15.395Z,9.711742
2022-09-18T05:14:15.383Z,9.711973
2022-09-18T05:15:15.372Z,9.711717
2022-09-18T05:16:15.457Z,9.711864
2022-09-18T05:17:15.362Z,9.711915
2022-09-18T05:18:15.346Z,9.711658
2022-09-18T05:19:15.351Z,9.711542
2022-09-18T05:20:15.332Z,9.711414
2022-09-18T05:21:15.323Z,9.711463
2022-09-18T05:22:15.316Z,9.711451
2022-09-18T05:23:15.313Z,9.711500
2022-09-18T05:24:15.466Z,9.711558
2022-09-18T05:25:15.304Z,9.711544
2022-09-18T05:26:16.291Z,9.711485
2022-09-18T05:27:15.273Z,9.711453
2022-09-18T05:28:15.273Z,9.711444
2022-09-18T05:29:15.283Z,9.711423
2022-09-18T05:30:15.248Z,9.711479
2022-09-18T05:31:15.309Z,9.711496
2022-09-18T05:32:15.233Z,9.711421
2022-09-18T05:33:15.231Z,9.711484
2022-09-18T05:34:15.220Z,9.711448
2022-09-18T05:35:15.206Z,9.711499
2022-09-18T05:36:15.199Z,9.711509
2022-09-18T05:37:15.196Z,9.711460
2022-09-18T05:38:15.183Z,9.711463
2022-09-18T05:39:17.646Z,9.711440
2022-09-18T05:40:16.316Z,9.711441
2022-09-18T05:41:15.156Z,9.711629
2022-09-18T05:42:15.174Z,9.711667
2022-09-18T05:43:15.138Z,9.711652
2022-09-18T05:44:15.138Z,9.711648
2022-09-18T05:45:15.125Z,9.711655
2022-09-18T05:46:15.228Z,9.711634
2022-09-18T05:47:15.115Z,9.711599
2022-09-18T05:48:15.099Z,9.711635
2022-09-18T05:49:15.092Z,9.711677
2022-09-18T05:50:15.090Z,9.711649
2022-09-18T05:51:15.088Z,9.711641
2022-09-18T05:52:15.079Z,9.711653
2022-09-18T05:53:15.059Z,9.711697
2022-09-18T05:54:15.050Z,9.711642
2022-09-18T05:55:15.045Z,9.711651
2022-09-18T05:56:15.142Z,9.711676
2022-09-18T05:57:15.041Z,9.711706
2022-09-18T05:58:15.020Z,9.711665
2022-09-18T05:59:15.026Z,9.711683
2022-09-18T06:00:15.002Z,9.711672
2022-09-18T06:01:15.524Z,9.711746
2022-09-18T06:02:15.076Z,9.711758
2022-09-18T06:03:15.046Z,9.711760
2022-09-18T06:04:14.972Z,9.711735
2022-09-18T06:05:14.958Z,9.711813
2022-09-18T06:06:14.950Z,9.711820
2022-09-18T06:07:14.942Z,9.711824
2022-09-18T06:08:14.939Z,9.711893
2022-09-18T06:09:14.927Z,9.711886
2022-09-18T06:10:14.917Z,9.711987
2022-09-18T06:11:14.915Z,9.712052
2022-09-18T06:12:15.006Z,9.712049
2022-09-18T06:13:14.895Z,9.712037
2022-09-18T06:14:14.885Z,9.711988
2022-09-18T06:15:14.875Z,9.712059
2022-09-18T06:16:14.945Z,9.711978
2022-09-18T06:17:14.858Z,9.711779
2022-09-18T06:18:14.858Z,9.711884
2022-09-18T06:19:14.843Z,9.711972
2022-09-18T06:20:14.836Z,9.711954
2022-09-18T06:21:14.835Z,9.712105
2022-09-18T06:22:14.820Z,9.712200
2022-09-18T06:23:14.811Z,9.712096
2022-09-18T06:24:14.809Z,9.712217
2022-09-18T06:25:14.793Z,9.712274
2022-09-18T06:26:15.326Z,9.712198
2022-09-18T06:27:15.776Z,9.712236
2022-09-18T06:28:14.875Z,9.711994
2022-09-18T06:29:14.769Z,9.712106
2022-09-18T06:30:14.755Z,9.712101
2022-09-18T06:31:14.759Z,9.712145
2022-09-18T06:32:14.744Z,9.711996
2022-09-18T06:33:14.728Z,9.711812
2022-09-18T06:34:14.725Z,9.711788
2022-09-18T06:35:14.712Z,9.711756
2022-09-18T06:36:14.699Z,9.711751
2022-09-18T06:37:14.697Z,9.711694
2022-09-18T06:38:14.694Z,9.711629
2022-09-18T06:39:14.681Z,9.711716
2022-09-18T06:40:14.729Z,9.711730
2022-09-18T06:41:14.661Z,9.711756
2022-09-18T06:42:14.661Z,9.711699
2022-09-18T06:43:14.640Z,9.711634
2022-09-18T06:44:14.739Z,9.711679
2022-09-18T06:45:14.634Z,9.711719
2022-09-18T06:46:14.701Z,9.711755
2022-09-18T06:47:14.617Z,9.711720
2022-09-18T06:48:14.602Z,9.711660
2022-09-18T06:49:14.596Z,9.711680
2022-09-18T06:50:14.584Z,9.711701
2022-09-18T06:51:14.598Z,9.711720
2022-09-18T06:52:14.575Z,9.711681
2022-09-18T06:53:14.576Z,9.711710
2022-09-18T06:54:14.554Z,9.711709
2022-09-18T06:55:14.552Z,9.711654
2022-09-18T06:56:14.541Z,9.711711
2022-09-18T06:57:14.528Z,9.711720
2022-09-18T06:58:14.524Z,9.711709
2022-09-18T06:59:14.511Z,9.711683
2022-09-18T07:00:14.617Z,9.711730
2022-09-18T07:01:14.548Z,9.711711
2022-09-18T07:02:19.200Z,9.711671
2022-09-18T07:03:16.478Z,9.711770
2022-09-18T07:04:14.469Z,9.711637
2022-09-18T07:05:14.465Z,9.711644
2022-09-18T07:06:14.464Z,9.711684
2022-09-18T07:07:14.449Z,9.711643
2022-09-18T07:08:14.443Z,9.711627
2022-09-18T07:09:14.430Z,9.711680
2022-09-18T07:10:14.425Z,9.711689
2022-09-18T07:11:14.419Z,9.711671
2022-09-18T07:12:14.412Z,9.711695
2022-09-18T07:13:14.397Z,9.711670
2022-09-18T07:14:14.391Z,9.711614
2022-09-18T07:15:14.381Z,9.711674
2022-09-18T07:16:14.555Z,9.711676
2022-09-18T07:17:18.230Z,9.711795
2022-09-18T07:18:15.360Z,9.711712
2022-09-18T07:19:14.354Z,9.711743
2022-09-18T07:20:14.342Z,9.711782
2022-09-18T07:21:14.335Z,9.711879
2022-09-18T07:22:14.331Z,9.711832
2022-09-18T07:23:14.317Z,9.711776
2022-09-18T07:24:14.324Z,9.711722
2022-09-18T07:25:14.309Z,9.711812
2022-09-18T07:26:14.307Z,9.711937
2022-09-18T07:27:14.285Z,9.711925
2022-09-18T07:28:14.373Z,9.711878
2022-09-18T07:29:14.266Z,9.711857
2022-09-18T07:30:14.260Z,9.711863
2022-09-18T07:31:14.318Z,9.711855
2022-09-18T07:32:14.344Z,9.711891
2022-09-18T07:33:15.133Z,9.711809
2022-09-18T07:34:14.231Z,9.711751
2022-09-18T07:35:14.222Z,9.711806
2022-09-18T07:36:14.221Z,9.711918
2022-09-18T07:37:14.205Z,9.712002
2022-09-18T07:38:14.209Z,9.711909
2022-09-18T07:39:14.190Z,9.711715
2022-09-18T07:40:14.229Z,9.711520
2022-09-18T07:41:14.186Z,9.711514
2022-09-18T07:42:14.166Z,9.711710
2022-09-18T07:43:14.157Z,9.711762
2022-09-18T07:44:14.150Z,9.711804
2022-09-18T07:45:14.139Z,9.711756
2022-09-18T07:46:14.181Z,9.711779
2022-09-18T07:47:14.145Z,9.711767
2022-09-18T07:48:14.214Z,9.711698
2022-09-18T07:49:14.103Z,9.711635
2022-09-18T07:50:14.102Z,9.711658
2022-09-18T07:51:14.099Z,9.711798
2022-09-18T07:52:14.106Z,9.711728
2022-09-18T07:53:14.088Z,9.711658
2022-09-18T07:54:14.067Z,9.711756
2022-09-18T07:55:14.059Z,9.711674
2022-09-18T07:56:14.052Z,9.711678
2022-09-18T07:57:14.050Z,9.711726
2022-09-18T07:58:14.035Z,9.711658
2022-09-18T07:59:14.025Z,9.711695
2022-09-18T08:00:14.025Z,9.711622
2022-09-18T08:01:14.009Z,9.711681
2022-09-18T08:02:14.192Z,9.711611
2022-09-18T08:03:14.060Z,9.711646
2022-09-18T08:04:14.101Z,9.711698
2022-09-18T08:05:13.978Z,9.711684
2022-09-18T08:06:14.030Z,9.711601
2022-09-18T08:07:13.957Z,9.711690
2022-09-18T08:08:13.956Z,9.711628
2022-09-18T08:09:13.941Z,9.711670
2022-09-18T08:10:13.942Z,9.711724
2022-09-18T08:11:13.930Z,9.711748
2022-09-18T08:12:13.913Z,9.711888
2022-09-18T08:13:13.906Z,9.711728
2022-09-18T08:14:13.901Z,9.711630
2022-09-18T08:15:13.891Z,9.711689
2022-09-18T08:16:13.992Z,9.711640
2022-09-18T08:17:13.885Z,9.711749
2022-09-18T08:18:13.865Z,9.711794
2022-09-18T08:19:13.860Z,9.711696
2022-09-18T08:20:13.962Z,9.711781
2022-09-18T08:21:13.842Z,9.711819
2022-09-18T08:22:13.840Z,9.711876
2022-09-18T08:23:13.823Z,9.711866
2022-09-18T08:24:13.821Z,9.711967
2022-09-18T08:25:13.814Z,9.711847
2022-09-18T08:26:15.072Z,9.711701
2022-09-18T08:27:13.803Z,9.711677
2022-09-18T08:28:13.791Z,9.711763
2022-09-18T08:29:13.785Z,9.711664
2022-09-18T08:30:13.776Z,9.712070
2022-09-18T08:31:13.835Z,9.711691
2022-09-18T08:32:13.758Z,9.712107
2022-09-18T08:33:13.756Z,9.711778
2022-09-18T08:34:13.739Z,9.711843
2022-09-18T08:35:13.732Z,9.711657
2022-09-18T08:36:13.843Z,9.711929
2022-09-18T08:37:13.716Z,9.711881
2022-09-18T08:38:13.707Z,9.711550
2022-09-18T08:39:13.700Z,9.711677
2022-09-18T08:40:13.751Z,9.711894
2022-09-18T08:41:13.681Z,9.711966
2022-09-18T08:42:13.674Z,9.711741
2022-09-18T08:43:13.669Z,9.711563
2022-09-18T08:44:13.658Z,9.711730
2022-09-18T08:45:13.658Z,9.711829
2022-09-18T08:46:13.686Z,9.711689
2022-09-18T08:47:13.625Z,9.711637
2022-09-18T08:48:14.627Z,9.711671
2022-09-18T08:49:13.615Z,9.711751
2022-09-18T08:50:13.616Z,9.711716
2022-09-18T08:51:13.598Z,9.711653
2022-09-18T08:52:13.689Z,9.711782
2022-09-18T08:53:13.583Z,9.711971
2022-09-18T08:54:13.575Z,9.711657
2022-09-18T08:55:13.572Z,9.711719
2022-09-18T08:56:13.563Z,9.712005
2022-09-18T08:57:15.638Z,9.711883
2022-09-18T08:58:15.071Z,9.711699
2022-09-18T08:59:13.532Z,9.711866
2022-09-18T09:00:13.530Z,9.711786
2022-09-18T09:01:13.606Z,9.711652
2022-09-18T09:02:13.637Z,9.711775
2022-09-18T09:03:13.501Z,9.711667
2022-09-18T09:04:13.493Z,9.711624
2022-09-18T09:05:13.489Z,9.711648
2022-09-18T09:06:13.486Z,9.711702
2022-09-18T09:07:13.470Z,9.711785
2022-09-18T09:08:13.567Z,9.711770
2022-09-18T09:09:16.905Z,9.711738
2022-09-18T09:10:15.451Z,9.711717
2022-09-18T09:11:13.440Z,9.711765
2022-09-18T09:12:13.439Z,9.711725
2022-09-18T09:13:13.426Z,9.711636
2022-09-18T09:14:13.413Z,9.711633
2022-09-18T09:15:14.725Z,9.711682
2022-09-18T09:16:13.459Z,9.711777
2022-09-18T09:17:13.398Z,9.711720
2022-09-18T09:18:13.412Z,9.711683
2022-09-18T09:19:13.377Z,9.711701
2022-09-18T09:20:13.367Z,9.711665
2022-09-18T09:21:13.363Z,9.711613
2022-09-18T09:22:13.348Z,9.711835
2022-09-18T09:23:13.349Z,9.711690
2022-09-18T09:24:13.437Z,9.711690
2022-09-18T09:25:14.087Z,9.711624
2022-09-18T09:26:13.323Z,9.711660
2022-09-18T09:27:13.310Z,9.711744
2022-09-18T09:28:16.286Z,9.711711
2022-09-18T09:29:14.292Z,9.711738
2022-09-18T09:30:13.286Z,9.711869
2022-09-18T09:31:13.316Z,9.711843
2022-09-18T09:32:13.339Z,9.711783
2022-09-18T09:33:13.259Z,9.711770
2022-09-18T09:34:13.256Z,9.711851
2022-09-18T09:35:13.240Z,9.711724
2022-09-18T09:36:13.232Z,9.711715
2022-09-18T09:37:13.231Z,9.711729
2022-09-18T09:38:13.221Z,9.711791
2022-09-18T09:39:13.215Z,9.711741
2022-09-18T09:40:13.447Z,9.711718
2022-09-18T09:41:13.194Z,9.711724
2022-09-18T09:42:13.187Z,9.711714
2022-09-18T09:43:13.178Z,9.711713
2022-09-18T09:44:13.179Z,9.711667
2022-09-18T09:45:13.162Z,9.711659
2022-09-18T09:46:15.111Z,9.711687
2022-09-18T09:47:13.287Z,9.711755
2022-09-18T09:48:13.149Z,9.711763
2022-09-18T09:49:13.131Z,9.711762
2022-09-18T09:50:13.124Z,9.711718
2022-09-18T09:51:13.122Z,9.711791
2022-09-18T09:52:13.107Z,9.711783
2022-09-18T09:53:13.100Z,9.711780
2022-09-18T09:54:13.094Z,9.711730
2022-09-18T09:55:13.121Z,9.711729
2022-09-18T09:56:13.192Z,9.711742
2022-09-18T09:57:13.068Z,9.711725
2022-09-18T09:58:13.061Z,9.711680
2022-09-18T09:59:13.592Z,9.711692
2022-09-18T10:00:13.053Z,9.711710
2022-09-18T10:01:13.142Z,9.711679
2022-09-18T10:02:13.063Z,9.711708
2022-09-18T10:03:13.022Z,9.711712
2022-09-18T10:04:13.007Z,9.711612
2022-09-18T10:05:13.015Z,9.711716
2022-09-18T10:06:12.996Z,9.711828
2022-09-18T10:07:12.983Z,9.711772
2022-09-18T10:08:12.967Z,9.711881
2022-09-18T10:09:13.978Z,9.711782
2022-09-18T10:10:12.958Z,9.711830
2022-09-18T10:11:12.957Z,9.711769
2022-09-18T10:12:12.948Z,9.711975
2022-09-18T10:13:12.934Z,9.711899
2022-09-18T10:14:12.925Z,9.711908
2022-09-18T10:15:12.921Z,9.711905
2022-09-18T10:16:12.986Z,9.711883
2022-09-18T10:17:12.905Z,9.711864
2022-09-18T10:18:16.244Z,9.711879
2022-09-18T10:19:13.884Z,9.711963
2022-09-18T10:20:12.895Z,9.711988
2022-09-18T10:21:12.885Z,9.711983
2022-09-18T10:22:12.881Z,9.711884
2022-09-18T10:23:12.864Z,9.712058
2022-09-18T10:24:12.846Z,9.711983
2022-09-18T10:25:12.846Z,9.711926
2022-09-18T10:26:12.837Z,9.711804
2022-09-18T10:27:13.606Z,9.711504
2022-09-18T10:28:12.914Z,9.711566
2022-09-18T10:29:12.806Z,9.711562
2022-09-18T10:30:12.799Z,9.711636
2022-09-18T10:31:12.845Z,9.711642
2022-09-18T10:32:12.792Z,9.711692
2022-09-18T10:33:12.774Z,9.711724
2022-09-18T10:34:12.764Z,9.711634
2022-09-18T10:35:12.761Z,9.711593
2022-09-18T10:36:12.756Z,9.711598
2022-09-18T10:37:12.752Z,9.711669
2022-09-18T10:38:12.736Z,9.711706
2022-09-18T10:39:12.729Z,9.711712
2022-09-18T10:40:12.756Z,9.711659
2022-09-18T10:41:12.710Z,9.711595
2022-09-18T10:42:12.828Z,9.711519
2022-09-18T10:43:12.691Z,9.711600
2022-09-18T10:44:12.808Z,9.711772
2022-09-18T10:45:12.678Z,9.711621
2022-09-18T10:46:12.717Z,9.711659
2022-09-18T10:47:12.670Z,9.711814
2022-09-18T10:48:12.653Z,9.711583
2022-09-18T10:49:13.610Z,9.711627
2022-09-18T10:50:12.710Z,9.711363
2022-09-18T10:51:12.630Z,9.711598
2022-09-18T10:52:12.625Z,9.711719
2022-09-18T10:53:12.611Z,9.711797
2022-09-18T10:54:12.618Z,9.711845
2022-09-18T10:55:12.613Z,9.711864
2022-09-18T10:56:12.586Z,9.711909
2022-09-18T10:57:12.577Z,9.712185
2022-09-18T10:58:12.569Z,9.712177
2022-09-18T10:59:12.565Z,9.712022
2022-09-18T11:00:12.751Z,9.711983
2022-09-18T11:01:12.625Z,9.711994
2022-09-18T11:02:12.577Z,9.712305
2022-09-18T11:03:12.526Z,9.712247
2022-09-18T11:04:12.519Z,9.712153
2022-09-18T11:05:12.516Z,9.712091
2022-09-18T11:06:12.504Z,9.712031
2022-09-18T11:07:12.506Z,9.712048
2022-09-18T11:08:12.491Z,9.712103
2022-09-18T11:09:12.490Z,9.712061
2022-09-18T11:10:12.479Z,9.711880
2022-09-18T11:11:12.459Z,9.712264
2022-09-18T11:12:12.455Z,9.712231
2022-09-18T11:13:12.447Z,9.712277
2022-09-18T11:14:12.435Z,9.712373
2022-09-18T11:15:12.435Z,9.712262
2022-09-18T11:16:12.551Z,9.712119
2022-09-18T11:17:12.412Z,9.712169
2022-09-18T11:18:12.407Z,9.712154
2022-09-18T11:19:12.401Z,9.711955
2022-09-18T11:20:12.393Z,9.711844
2022-09-18T11:21:12.386Z,9.711749
2022-09-18T11:22:12.375Z,9.711721
2022-09-18T11:23:12.361Z,9.711777
2022-09-18T11:24:12.359Z,9.711849
2022-09-18T11:25:12.352Z,9.711878
2022-09-18T11:26:12.344Z,9.711895
2022-09-18T11:27:12.339Z,9.711844
2022-09-18T11:28:12.332Z,9.711955
2022-09-18T11:29:12.320Z,9.711971
2022-09-18T11:30:12.308Z,9.711898
2022-09-18T11:31:12.397Z,9.711932
2022-09-18T11:32:12.390Z,9.712041
2022-09-18T11:33:12.291Z,9.711798
2022-09-18T11:34:12.280Z,9.711720
2022-09-18T11:35:12.264Z,9.711712
2022-09-18T11:36:13.256Z,9.711713
2022-09-18T11:37:13.249Z,9.711790
2022-09-18T11:38:12.248Z,9.711700
2022-09-18T11:39:13.122Z,9.711594
2022-09-18T11:40:12.264Z,9.711668
2022-09-18T11:41:12.213Z,9.711567
2022-09-18T11:42:12.206Z,9.711728
2022-09-18T11:43:12.219Z,9.711732
2022-09-18T11:44:12.192Z,9.711802
2022-09-18T11:45:12.195Z,9.711667
2022-09-18T11:46:12.223Z,9.711649
2022-09-18T11:47:12.167Z,9.711794
2022-09-18T11:48:12.275Z,9.711765